Airport View

Enter AWOS ICAO identifier for current METAR.

ex. KFNL

KPUW 212253Z AUTO 27008KT 10SM CLR 20/06 A3006 RMK AO2 SLP175 T02000061

21 Sep 2019 23:29

Frequency: 135.675

Phone: 509-334-3222

Other Area AWOS: KLWS - KGEG - KSKA - KSFF

TAF KPUW 211720Z 2118/2218 VRB05KT P6SM SCT200 FM212100 24007KT P6SM SCT050 FM221400 VRB03KT P6SM BKN200